sensor_id;sensor_type;location;lat;lon;timestamp;P1;durP1;ratioP1;P2;durP2;ratioP2
34019;SDS011;20895;51.034;3.742;2023-02-28T00:02:24;14.00;;;5.05;;
34019;SDS011;20895;51.034;3.742;2023-02-28T00:04:49;7.70;;;4.55;;
34019;SDS011;20895;51.034;3.742;2023-02-28T00:07:18;9.73;;;4.88;;
34019;SDS011;20895;51.034;3.742;2023-02-28T00:09:43;9.82;;;5.28;;
34019;SDS011;20895;51.034;3.742;2023-02-28T00:12:08;7.68;;;4.45;;
34019;SDS011;20895;51.034;3.742;2023-02-28T00:14:35;8.48;;;5.40;;
34019;SDS011;20895;51.034;3.742;2023-02-28T00:17:00;9.00;;;5.32;;
34019;SDS011;20895;51.034;3.742;2023-02-28T00:19:25;5.03;;;4.00;;
34019;SDS011;20895;51.034;3.742;2023-02-28T00:21:50;9.07;;;4.82;;
34019;SDS011;20895;51.034;3.742;2023-02-28T00:24:16;9.50;;;4.90;;
34019;SDS011;20895;51.034;3.742;2023-02-28T00:26:41;10.18;;;5.47;;
34019;SDS011;20895;51.034;3.742;2023-02-28T00:29:06;6.93;;;4.80;;
34019;SDS011;20895;51.034;3.742;2023-02-28T00:31:32;8.20;;;5.20;;
34019;SDS011;20895;51.034;3.742;2023-02-28T00:33:57;7.68;;;5.10;;
34019;SDS011;20895;51.034;3.742;2023-02-28T00:36:23;11.82;;;5.55;;
34019;SDS011;20895;51.034;3.742;2023-02-28T00:38:48;7.93;;;5.13;;
34019;SDS011;20895;51.034;3.742;2023-02-28T00:41:13;8.27;;;4.78;;
34019;SDS011;20895;51.034;3.742;2023-02-28T00:43:39;7.38;;;5.25;;
34019;SDS011;20895;51.034;3.742;2023-02-28T00:46:04;9.27;;;5.38;;
34019;SDS011;20895;51.034;3.742;2023-02-28T00:48:30;9.73;;;5.20;;
34019;SDS011;20895;51.034;3.742;2023-02-28T00:50:55;6.88;;;4.90;;
34019;SDS011;20895;51.034;3.742;2023-02-28T00:53:20;6.40;;;5.20;;
34019;SDS011;20895;51.034;3.742;2023-02-28T00:55:47;8.82;;;5.38;;
34019;SDS011;20895;51.034;3.742;2023-02-28T00:58:13;7.80;;;5.30;;
34019;SDS011;20895;51.034;3.742;2023-02-28T01:00:38;9.30;;;5.70;;
34019;SDS011;20895;51.034;3.742;2023-02-28T01:03:03;10.30;;;6.53;;
34019;SDS011;20895;51.034;3.742;2023-02-28T01:05:29;9.07;;;5.75;;
34019;SDS011;20895;51.034;3.742;2023-02-28T01:07:54;6.85;;;5.10;;
34019;SDS011;20895;51.034;3.742;2023-02-28T01:10:19;7.75;;;5.65;;
34019;SDS011;20895;51.034;3.742;2023-02-28T01:12:45;9.90;;;5.60;;
34019;SDS011;20895;51.034;3.742;2023-02-28T01:15:11;11.27;;;5.97;;
34019;SDS011;20895;51.034;3.742;2023-02-28T01:17:36;7.43;;;5.47;;
34019;SDS011;20895;51.034;3.742;2023-02-28T01:20:01;9.40;;;6.32;;
34019;SDS011;20895;51.034;3.742;2023-02-28T01:22:27;8.70;;;6.18;;
34019;SDS011;20895;51.034;3.742;2023-02-28T01:24:53;8.00;;;5.55;;
34019;SDS011;20895;51.034;3.742;2023-02-28T01:27:19;7.65;;;5.70;;
34019;SDS011;20895;51.034;3.742;2023-02-28T01:29:44;11.10;;;5.97;;
34019;SDS011;20895;51.034;3.742;2023-02-28T01:32:09;7.85;;;5.70;;
34019;SDS011;20895;51.034;3.742;2023-02-28T01:34:35;9.05;;;5.88;;
34019;SDS011;20895;51.034;3.742;2023-02-28T01:37:00;7.65;;;5.10;;
34019;SDS011;20895;51.034;3.742;2023-02-28T01:39:26;9.13;;;5.55;;
34019;SDS011;20895;51.034;3.742;2023-02-28T01:41:51;13.50;;;6.80;;
34019;SDS011;20895;51.034;3.742;2023-02-28T01:49:25;7.95;;;5.82;;
34019;SDS011;20895;51.034;3.742;2023-02-28T01:51:51;9.93;;;6.03;;
34019;SDS011;20895;51.034;3.742;2023-02-28T01:54:26;8.63;;;5.93;;
34019;SDS011;20895;51.034;3.742;2023-02-28T01:57:04;9.40;;;6.20;;
34019;SDS011;20895;51.034;3.742;2023-02-28T02:00:04;12.80;;;5.57;;
34019;SDS011;20895;51.034;3.742;2023-02-28T02:02:23;10.07;;;6.43;;
34019;SDS011;20895;51.034;3.742;2023-02-28T02:04:59;10.90;;;5.88;;
34019;SDS011;20895;51.034;3.742;2023-02-28T02:07:26;7.43;;;5.22;;
34019;SDS011;20895;51.034;3.742;2023-02-28T02:10:01;11.05;;;5.95;;
34019;SDS011;20895;51.034;3.742;2023-02-28T02:15:12;9.88;;;5.68;;
34019;SDS011;20895;51.034;3.742;2023-02-28T02:17:41;8.13;;;6.03;;
34019;SDS011;20895;51.034;3.742;2023-02-28T02:25:29;11.77;;;6.30;;
34019;SDS011;20895;51.034;3.742;2023-02-28T02:38:29;16.10;;;10.15;;
34019;SDS011;20895;51.034;3.742;2023-02-28T02:41:08;14.95;;;9.80;;
34019;SDS011;20895;51.034;3.742;2023-02-28T02:43:36;12.00;;;7.68;;
34019;SDS011;20895;51.034;3.742;2023-02-28T02:46:09;9.70;;;7.20;;
34019;SDS011;20895;51.034;3.742;2023-02-28T02:48:36;9.82;;;6.95;;
34019;SDS011;20895;51.034;3.742;2023-02-28T02:51:07;9.95;;;6.40;;
34019;SDS011;20895;51.034;3.742;2023-02-28T02:56:02;10.90;;;6.78;;
34019;SDS011;20895;51.034;3.742;2023-02-28T02:58:29;17.60;;;7.28;;
34019;SDS011;20895;51.034;3.742;2023-02-28T03:00:56;14.50;;;7.30;;
34019;SDS011;20895;51.034;3.742;2023-02-28T03:03:23;10.13;;;7.05;;
34019;SDS011;20895;51.034;3.742;2023-02-28T03:05:54;8.63;;;6.13;;
34019;SDS011;20895;51.034;3.742;2023-02-28T03:08:19;8.32;;;6.38;;
34019;SDS011;20895;51.034;3.742;2023-02-28T03:10:46;10.50;;;6.28;;
34019;SDS011;20895;51.034;3.742;2023-02-28T03:15:46;9.48;;;6.60;;
34019;SDS011;20895;51.034;3.742;2023-02-28T03:19:02;10.75;;;7.03;;
34019;SDS011;20895;51.034;3.742;2023-02-28T03:23:51;9.80;;;7.47;;
34019;SDS011;20895;51.034;3.742;2023-02-28T03:26:22;8.80;;;6.63;;
34019;SDS011;20895;51.034;3.742;2023-02-28T03:33:43;9.10;;;6.80;;
34019;SDS011;20895;51.034;3.742;2023-02-28T03:36:14;8.43;;;6.10;;
34019;SDS011;20895;51.034;3.742;2023-02-28T03:38:43;18.73;;;7.85;;
34019;SDS011;20895;51.034;3.742;2023-02-28T03:41:14;10.55;;;6.97;;
34019;SDS011;20895;51.034;3.742;2023-02-28T03:43:41;17.30;;;8.20;;
34019;SDS011;20895;51.034;3.742;2023-02-28T03:46:09;12.35;;;6.65;;
34019;SDS011;20895;51.034;3.742;2023-02-28T03:48:37;12.35;;;7.35;;
34019;SDS011;20895;51.034;3.742;2023-02-28T03:51:03;15.50;;;7.57;;
34019;SDS011;20895;51.034;3.742;2023-02-28T03:53:36;16.52;;;7.90;;
34019;SDS011;20895;51.034;3.742;2023-02-28T03:56:06;8.57;;;7.10;;
34019;SDS011;20895;51.034;3.742;2023-02-28T03:58:37;9.23;;;6.53;;
34019;SDS011;20895;51.034;3.742;2023-02-28T04:01:09;8.33;;;6.67;;
34019;SDS011;20895;51.034;3.742;2023-02-28T04:03:37;9.20;;;6.93;;
34019;SDS011;20895;51.034;3.742;2023-02-28T04:06:03;11.15;;;7.13;;
34019;SDS011;20895;51.034;3.742;2023-02-28T04:08:29;10.70;;;6.50;;
34019;SDS011;20895;51.034;3.742;2023-02-28T04:10:56;11.50;;;6.97;;
34019;SDS011;20895;51.034;3.742;2023-02-28T04:13:23;15.38;;;7.22;;
34019;SDS011;20895;51.034;3.742;2023-02-28T04:15:48;16.17;;;7.75;;
34019;SDS011;20895;51.034;3.742;2023-02-28T04:18:13;10.80;;;7.32;;
34019;SDS011;20895;51.034;3.742;2023-02-28T04:20:39;11.13;;;6.85;;
34019;SDS011;20895;51.034;3.742;2023-02-28T04:23:04;9.43;;;6.80;;
34019;SDS011;20895;51.034;3.742;2023-02-28T04:25:29;10.45;;;6.65;;
34019;SDS011;20895;51.034;3.742;2023-02-28T04:27:54;10.93;;;7.07;;
34019;SDS011;20895;51.034;3.742;2023-02-28T04:30:20;10.23;;;7.82;;
34019;SDS011;20895;51.034;3.742;2023-02-28T04:32:45;10.40;;;7.20;;
34019;SDS011;20895;51.034;3.742;2023-02-28T04:35:10;10.18;;;7.25;;
34019;SDS011;20895;51.034;3.742;2023-02-28T04:37:35;11.25;;;7.80;;
34019;SDS011;20895;51.034;3.742;2023-02-28T04:40:02;26.60;;;8.63;;
34019;SDS011;20895;51.034;3.742;2023-02-28T04:42:27;11.90;;;8.07;;
34019;SDS011;20895;51.034;3.742;2023-02-28T04:45:00;8.80;;;7.28;;
34019;SDS011;20895;51.034;3.742;2023-02-28T04:47:25;10.05;;;7.25;;
34019;SDS011;20895;51.034;3.742;2023-02-28T04:49:50;11.15;;;6.50;;
34019;SDS011;20895;51.034;3.742;2023-02-28T04:52:15;9.85;;;6.63;;
34019;SDS011;20895;51.034;3.742;2023-02-28T04:54:41;8.98;;;6.25;;
34019;SDS011;20895;51.034;3.742;2023-02-28T04:57:06;17.70;;;6.63;;
34019;SDS011;20895;51.034;3.742;2023-02-28T04:59:31;13.15;;;7.25;;
34019;SDS011;20895;51.034;3.742;2023-02-28T05:01:57;10.05;;;6.38;;
34019;SDS011;20895;51.034;3.742;2023-02-28T05:04:22;24.10;;;7.15;;
34019;SDS011;20895;51.034;3.742;2023-02-28T05:06:48;18.95;;;6.18;;
34019;SDS011;20895;51.034;3.742;2023-02-28T05:09:13;10.40;;;7.03;;
34019;SDS011;20895;51.034;3.742;2023-02-28T05:11:38;10.63;;;5.90;;
34019;SDS011;20895;51.034;3.742;2023-02-28T05:14:05;12.90;;;6.72;;
34019;SDS011;20895;51.034;3.742;2023-02-28T05:16:31;13.23;;;6.45;;
34019;SDS011;20895;51.034;3.742;2023-02-28T05:18:56;9.13;;;6.20;;
34019;SDS011;20895;51.034;3.742;2023-02-28T05:21:29;11.57;;;6.13;;
34019;SDS011;20895;51.034;3.742;2023-02-28T05:23:55;18.95;;;7.50;;
34019;SDS011;20895;51.034;3.742;2023-02-28T05:26:21;9.25;;;5.85;;
34019;SDS011;20895;51.034;3.742;2023-02-28T05:28:46;12.13;;;6.20;;
34019;SDS011;20895;51.034;3.742;2023-02-28T05:31:11;9.38;;;6.53;;
34019;SDS011;20895;51.034;3.742;2023-02-28T05:33:37;10.50;;;6.28;;
34019;SDS011;20895;51.034;3.742;2023-02-28T05:36:02;13.20;;;7.20;;
34019;SDS011;20895;51.034;3.742;2023-02-28T05:38:27;18.13;;;7.60;;
34019;SDS011;20895;51.034;3.742;2023-02-28T05:40:53;10.38;;;6.47;;
34019;SDS011;20895;51.034;3.742;2023-02-28T05:43:18;16.63;;;6.95;;
34019;SDS011;20895;51.034;3.742;2023-02-28T05:45:43;11.90;;;5.90;;
34019;SDS011;20895;51.034;3.742;2023-02-28T05:48:08;9.30;;;6.00;;
34019;SDS011;20895;51.034;3.742;2023-02-28T05:50:34;10.23;;;6.10;;
34019;SDS011;20895;51.034;3.742;2023-02-28T05:52:59;9.13;;;6.20;;
34019;SDS011;20895;51.034;3.742;2023-02-28T05:55:24;11.80;;;7.07;;
34019;SDS011;20895;51.034;3.742;2023-02-28T05:57:50;10.20;;;6.38;;
34019;SDS011;20895;51.034;3.742;2023-02-28T06:00:15;10.43;;;6.85;;
34019;SDS011;20895;51.034;3.742;2023-02-28T06:02:42;11.55;;;7.20;;
34019;SDS011;20895;51.034;3.742;2023-02-28T06:05:10;9.40;;;6.43;;
34019;SDS011;20895;51.034;3.742;2023-02-28T06:07:37;11.18;;;6.38;;
34019;SDS011;20895;51.034;3.742;2023-02-28T06:10:03;10.20;;;6.63;;
34019;SDS011;20895;51.034;3.742;2023-02-28T06:12:29;13.40;;;6.28;;
34019;SDS011;20895;51.034;3.742;2023-02-28T06:14:54;14.82;;;6.80;;
34019;SDS011;20895;51.034;3.742;2023-02-28T06:17:19;10.38;;;6.40;;
34019;SDS011;20895;51.034;3.742;2023-02-28T06:19:44;8.23;;;6.47;;
34019;SDS011;20895;51.034;3.742;2023-02-28T06:22:10;9.52;;;6.15;;
34019;SDS011;20895;51.034;3.742;2023-02-28T06:24:35;11.73;;;6.20;;
34019;SDS011;20895;51.034;3.742;2023-02-28T06:27:00;24.08;;;6.93;;
34019;SDS011;20895;51.034;3.742;2023-02-28T06:29:30;13.75;;;6.60;;
34019;SDS011;20895;51.034;3.742;2023-02-28T06:31:55;10.52;;;6.38;;
34019;SDS011;20895;51.034;3.742;2023-02-28T06:34:21;10.02;;;6.88;;
34019;SDS011;20895;51.034;3.742;2023-02-28T06:36:46;9.57;;;6.03;;
34019;SDS011;20895;51.034;3.742;2023-02-28T06:39:11;14.55;;;6.25;;
34019;SDS011;20895;51.034;3.742;2023-02-28T06:41:37;12.23;;;6.85;;
34019;SDS011;20895;51.034;3.742;2023-02-28T06:44:05;9.15;;;6.38;;
34019;SDS011;20895;51.034;3.742;2023-02-28T06:46:31;14.75;;;6.50;;
34019;SDS011;20895;51.034;3.742;2023-02-28T06:48:56;13.60;;;6.70;;
34019;SDS011;20895;51.034;3.742;2023-02-28T06:51:22;21.52;;;7.18;;
34019;SDS011;20895;51.034;3.742;2023-02-28T06:53:49;11.75;;;6.20;;
34019;SDS011;20895;51.034;3.742;2023-02-28T06:56:15;11.73;;;6.15;;
34019;SDS011;20895;51.034;3.742;2023-02-28T06:58:40;10.23;;;6.25;;
34019;SDS011;20895;51.034;3.742;2023-02-28T07:01:06;11.20;;;6.35;;
34019;SDS011;20895;51.034;3.742;2023-02-28T07:03:31;11.45;;;7.50;;
34019;SDS011;20895;51.034;3.742;2023-02-28T07:05:57;11.18;;;5.85;;
34019;SDS011;20895;51.034;3.742;2023-02-28T07:08:23;14.60;;;7.38;;
34019;SDS011;20895;51.034;3.742;2023-02-28T07:10:51;13.23;;;6.05;;
34019;SDS011;20895;51.034;3.742;2023-02-28T07:13:16;21.30;;;6.53;;
34019;SDS011;20895;51.034;3.742;2023-02-28T07:15:42;27.92;;;7.47;;
34019;SDS011;20895;51.034;3.742;2023-02-28T07:18:09;10.27;;;5.95;;
34019;SDS011;20895;51.034;3.742;2023-02-28T07:20:35;14.20;;;6.65;;
34019;SDS011;20895;51.034;3.742;2023-02-28T07:23:00;9.70;;;6.43;;
34019;SDS011;20895;51.034;3.742;2023-02-28T07:25:26;9.55;;;5.70;;
34019;SDS011;20895;51.034;3.742;2023-02-28T07:27:52;12.18;;;6.03;;
34019;SDS011;20895;51.034;3.742;2023-02-28T07:30:18;17.48;;;6.07;;
34019;SDS011;20895;51.034;3.742;2023-02-28T07:32:44;9.05;;;5.78;;
34019;SDS011;20895;51.034;3.742;2023-02-28T07:35:09;12.15;;;5.35;;
34019;SDS011;20895;51.034;3.742;2023-02-28T07:37:34;40.28;;;9.45;;
34019;SDS011;20895;51.034;3.742;2023-02-28T07:40:06;29.15;;;6.65;;
34019;SDS011;20895;51.034;3.742;2023-02-28T07:42:33;12.82;;;5.53;;
34019;SDS011;20895;51.034;3.742;2023-02-28T07:44:58;12.30;;;5.85;;
34019;SDS011;20895;51.034;3.742;2023-02-28T07:47:24;7.93;;;5.47;;
34019;SDS011;20895;51.034;3.742;2023-02-28T07:49:49;15.05;;;6.25;;
34019;SDS011;20895;51.034;3.742;2023-02-28T07:52:15;9.77;;;5.40;;
34019;SDS011;20895;51.034;3.742;2023-02-28T07:54:40;15.45;;;6.63;;
34019;SDS011;20895;51.034;3.742;2023-02-28T07:57:05;8.70;;;5.63;;
34019;SDS011;20895;51.034;3.742;2023-02-28T07:59:30;21.85;;;7.03;;
34019;SDS011;20895;51.034;3.742;2023-02-28T08:01:57;6.78;;;5.10;;
34019;SDS011;20895;51.034;3.742;2023-02-28T08:04:22;11.20;;;5.30;;
34019;SDS011;20895;51.034;3.742;2023-02-28T08:06:47;19.92;;;6.18;;
34019;SDS011;20895;51.034;3.742;2023-02-28T08:09:13;11.80;;;5.18;;
34019;SDS011;20895;51.034;3.742;2023-02-28T08:11:39;9.18;;;5.05;;
34019;SDS011;20895;51.034;3.742;2023-02-28T08:14:04;25.63;;;6.97;;
34019;SDS011;20895;51.034;3.742;2023-02-28T08:16:29;23.77;;;6.20;;
34019;SDS011;20895;51.034;3.742;2023-02-28T08:18:54;15.50;;;4.82;;
34019;SDS011;20895;51.034;3.742;2023-02-28T08:21:20;8.30;;;4.43;;
34019;SDS011;20895;51.034;3.742;2023-02-28T08:23:46;21.35;;;5.68;;
34019;SDS011;20895;51.034;3.742;2023-02-28T08:26:12;18.35;;;6.25;;
34019;SDS011;20895;51.034;3.742;2023-02-28T08:28:37;5.80;;;4.20;;
34019;SDS011;20895;51.034;3.742;2023-02-28T08:31:06;7.60;;;4.60;;
34019;SDS011;20895;51.034;3.742;2023-02-28T08:33:32;22.27;;;8.73;;
34019;SDS011;20895;51.034;3.742;2023-02-28T08:35:57;6.32;;;4.38;;
34019;SDS011;20895;51.034;3.742;2023-02-28T08:38:23;35.88;;;6.20;;
34019;SDS011;20895;51.034;3.742;2023-02-28T08:40:48;7.10;;;4.57;;
34019;SDS011;20895;51.034;3.742;2023-02-28T08:43:13;8.45;;;4.80;;
34019;SDS011;20895;51.034;3.742;2023-02-28T08:45:39;6.93;;;5.10;;
34019;SDS011;20895;51.034;3.742;2023-02-28T08:48:04;7.22;;;4.35;;
34019;SDS011;20895;51.034;3.742;2023-02-28T08:50:29;13.15;;;6.25;;
34019;SDS011;20895;51.034;3.742;2023-02-28T08:52:55;20.95;;;6.28;;
34019;SDS011;20895;51.034;3.742;2023-02-28T08:55:20;22.75;;;4.72;;
34019;SDS011;20895;51.034;3.742;2023-02-28T08:57:45;13.05;;;5.18;;
34019;SDS011;20895;51.034;3.742;2023-02-28T09:00:11;13.05;;;5.00;;
34019;SDS011;20895;51.034;3.742;2023-02-28T09:02:38;35.00;;;7.00;;
34019;SDS011;20895;51.034;3.742;2023-02-28T09:05:04;10.00;;;4.88;;
34019;SDS011;20895;51.034;3.742;2023-02-28T09:07:29;11.57;;;5.22;;
34019;SDS011;20895;51.034;3.742;2023-02-28T09:09:54;10.00;;;4.68;;
34019;SDS011;20895;51.034;3.742;2023-02-28T09:12:21;12.27;;;4.70;;
34019;SDS011;20895;51.034;3.742;2023-02-28T09:14:46;35.47;;;7.57;;
34019;SDS011;20895;51.034;3.742;2023-02-28T09:17:11;14.57;;;5.22;;
34019;SDS011;20895;51.034;3.742;2023-02-28T09:19:37;9.68;;;4.80;;
34019;SDS011;20895;51.034;3.742;2023-02-28T09:22:02;40.63;;;8.02;;
34019;SDS011;20895;51.034;3.742;2023-02-28T09:24:27;5.60;;;3.80;;
34019;SDS011;20895;51.034;3.742;2023-02-28T09:26:52;6.50;;;3.88;;
34019;SDS011;20895;51.034;3.742;2023-02-28T09:29:18;65.20;;;9.18;;
34019;SDS011;20895;51.034;3.742;2023-02-28T09:31:43;12.60;;;5.03;;
34019;SDS011;20895;51.034;3.742;2023-02-28T09:34:09;11.18;;;4.75;;
34019;SDS011;20895;51.034;3.742;2023-02-28T09:36:34;12.43;;;4.45;;
34019;SDS011;20895;51.034;3.742;2023-02-28T09:39:02;12.07;;;4.03;;
34019;SDS011;20895;51.034;3.742;2023-02-28T09:41:28;11.93;;;4.32;;
34019;SDS011;20895;51.034;3.742;2023-02-28T09:44:00;24.35;;;5.47;;
34019;SDS011;20895;51.034;3.742;2023-02-28T09:46:32;8.38;;;3.85;;
34019;SDS011;20895;51.034;3.742;2023-02-28T09:48:59;27.60;;;7.07;;
34019;SDS011;20895;51.034;3.742;2023-02-28T09:53:51;13.55;;;6.75;;
34019;SDS011;20895;51.034;3.742;2023-02-28T09:56:20;10.10;;;3.83;;
34019;SDS011;20895;51.034;3.742;2023-02-28T10:07:06;5.43;;;3.10;;
34019;SDS011;20895;51.034;3.742;2023-02-28T10:09:42;15.98;;;6.72;;
34019;SDS011;20895;51.034;3.742;2023-02-28T10:12:08;8.20;;;4.00;;
34019;SDS011;20895;51.034;3.742;2023-02-28T10:14:35;8.23;;;3.50;;
34019;SDS011;20895;51.034;3.742;2023-02-28T10:19:35;23.88;;;5.05;;
34019;SDS011;20895;51.034;3.742;2023-02-28T10:24:32;11.77;;;3.58;;
34019;SDS011;20895;51.034;3.742;2023-02-28T10:27:17;8.50;;;4.10;;
34019;SDS011;20895;51.034;3.742;2023-02-28T10:29:44;6.50;;;2.80;;
34019;SDS011;20895;51.034;3.742;2023-02-28T10:32:11;5.80;;;2.83;;
34019;SDS011;20895;51.034;3.742;2023-02-28T10:34:39;12.68;;;4.18;;
34019;SDS011;20895;51.034;3.742;2023-02-28T10:37:04;22.42;;;4.97;;
34019;SDS011;20895;51.034;3.742;2023-02-28T10:42:01;8.00;;;3.20;;
34019;SDS011;20895;51.034;3.742;2023-02-28T10:44:26;5.15;;;2.65;;
34019;SDS011;20895;51.034;3.742;2023-02-28T10:46:51;10.98;;;2.80;;
34019;SDS011;20895;51.034;3.742;2023-02-28T10:49:22;13.52;;;3.65;;
34019;SDS011;20895;51.034;3.742;2023-02-28T10:51:48;60.35;;;6.30;;
34019;SDS011;20895;51.034;3.742;2023-02-28T10:57:15;8.68;;;3.47;;
34019;SDS011;20895;51.034;3.742;2023-02-28T10:59:40;5.22;;;1.65;;
34019;SDS011;20895;51.034;3.742;2023-02-28T11:07:19;4.40;;;2.13;;
34019;SDS011;20895;51.034;3.742;2023-02-28T11:09:45;14.63;;;3.47;;
34019;SDS011;20895;51.034;3.742;2023-02-28T11:12:23;5.85;;;2.42;;
34019;SDS011;20895;51.034;3.742;2023-02-28T11:14:49;13.45;;;3.55;;
34019;SDS011;20895;51.034;3.742;2023-02-28T11:17:25;8.90;;;3.13;;
34019;SDS011;20895;51.034;3.742;2023-02-28T11:19:53;13.45;;;5.05;;
34019;SDS011;20895;51.034;3.742;2023-02-28T11:22:20;33.10;;;6.70;;
34019;SDS011;20895;51.034;3.742;2023-02-28T11:24:47;6.38;;;2.45;;
34019;SDS011;20895;51.034;3.742;2023-02-28T11:29:54;4.25;;;2.35;;
34019;SDS011;20895;51.034;3.742;2023-02-28T11:32:20;19.10;;;4.57;;
34019;SDS011;20895;51.034;3.742;2023-02-28T11:34:47;3.70;;;1.67;;
34019;SDS011;20895;51.034;3.742;2023-02-28T11:37:24;5.28;;;2.50;;
34019;SDS011;20895;51.034;3.742;2023-02-28T11:39:51;28.77;;;4.53;;
34019;SDS011;20895;51.034;3.742;2023-02-28T11:47:29;14.07;;;3.10;;
34019;SDS011;20895;51.034;3.742;2023-02-28T12:02:30;3.83;;;1.65;;
34019;SDS011;20895;51.034;3.742;2023-02-28T12:18:15;3.55;;;3.00;;
34019;SDS011;20895;51.034;3.742;2023-02-28T12:28:26;2.05;;;1.40;;
34019;SDS011;20895;51.034;3.742;2023-02-28T12:30:54;4.05;;;1.80;;
34019;SDS011;20895;51.034;3.742;2023-02-28T12:33:22;2.38;;;1.60;;
34019;SDS011;20895;51.034;3.742;2023-02-28T12:35:55;3.10;;;1.60;;
34019;SDS011;20895;51.034;3.742;2023-02-28T12:38:27;5.68;;;2.38;;
34019;SDS011;20895;51.034;3.742;2023-02-28T12:40:54;3.20;;;1.58;;
34019;SDS011;20895;51.034;3.742;2023-02-28T12:43:22;4.00;;;1.60;;
34019;SDS011;20895;51.034;3.742;2023-02-28T12:45:51;4.60;;;1.70;;
34019;SDS011;20895;51.034;3.742;2023-02-28T12:48:21;2.15;;;1.58;;
34019;SDS011;20895;51.034;3.742;2023-02-28T12:50:49;8.73;;;2.42;;
34019;SDS011;20895;51.034;3.742;2023-02-28T12:53:18;6.53;;;1.98;;
34019;SDS011;20895;51.034;3.742;2023-02-28T12:55:52;4.53;;;2.00;;
34019;SDS011;20895;51.034;3.742;2023-02-28T13:11:28;5.13;;;1.55;;
34019;SDS011;20895;51.034;3.742;2023-02-28T13:13:58;6.28;;;1.85;;
34019;SDS011;20895;51.034;3.742;2023-02-28T13:16:23;5.68;;;1.92;;
34019;SDS011;20895;51.034;3.742;2023-02-28T13:18:49;2.83;;;1.52;;
34019;SDS011;20895;51.034;3.742;2023-02-28T13:21:27;5.35;;;2.10;;
34019;SDS011;20895;51.034;3.742;2023-02-28T13:31:24;7.00;;;1.95;;
34019;SDS011;20895;51.034;3.742;2023-02-28T13:36:31;1.88;;;1.33;;
34019;SDS011;20895;51.034;3.742;2023-02-28T13:38:58;3.67;;;2.00;;
34019;SDS011;20895;51.034;3.742;2023-02-28T13:46:27;3.90;;;1.70;;
34019;SDS011;20895;51.034;3.742;2023-02-28T13:48:52;3.10;;;1.88;;
34019;SDS011;20895;51.034;3.742;2023-02-28T13:54:06;6.90;;;3.55;;
34019;SDS011;20895;51.034;3.742;2023-02-28T13:56:51;3.40;;;1.75;;
34019;SDS011;20895;51.034;3.742;2023-02-28T13:59:32;8.25;;;2.33;;
34019;SDS011;20895;51.034;3.742;2023-02-28T14:02:13;4.18;;;1.70;;
34019;SDS011;20895;51.034;3.742;2023-02-28T14:07:16;13.43;;;2.35;;
34019;SDS011;20895;51.034;3.742;2023-02-28T14:09:45;4.47;;;2.35;;
34019;SDS011;20895;51.034;3.742;2023-02-28T14:14:56;3.13;;;1.80;;
34019;SDS011;20895;51.034;3.742;2023-02-28T14:17:21;2.85;;;1.70;;
34019;SDS011;20895;51.034;3.742;2023-02-28T14:19:50;6.40;;;2.88;;
34019;SDS011;20895;51.034;3.742;2023-02-28T14:24:47;4.97;;;1.70;;
34019;SDS011;20895;51.034;3.742;2023-02-28T14:27:41;5.90;;;2.10;;
34019;SDS011;20895;51.034;3.742;2023-02-28T14:33:01;3.03;;;1.65;;
34019;SDS011;20895;51.034;3.742;2023-02-28T14:37:57;19.30;;;4.60;;
34019;SDS011;20895;51.034;3.742;2023-02-28T14:40:30;3.17;;;2.10;;
34019;SDS011;20895;51.034;3.742;2023-02-28T14:43:01;5.15;;;2.70;;
34019;SDS011;20895;51.034;3.742;2023-02-28T14:45:31;31.33;;;5.03;;
34019;SDS011;20895;51.034;3.742;2023-02-28T14:47:56;6.45;;;1.85;;
34019;SDS011;20895;51.034;3.742;2023-02-28T14:50:24;3.25;;;1.90;;
34019;SDS011;20895;51.034;3.742;2023-02-28T14:52:51;4.80;;;2.60;;
34019;SDS011;20895;51.034;3.742;2023-02-28T14:55:17;4.75;;;2.70;;
34019;SDS011;20895;51.034;3.742;2023-02-28T14:57:53;7.45;;;2.72;;
34019;SDS011;20895;51.034;3.742;2023-02-28T15:00:27;5.63;;;2.42;;
34019;SDS011;20895;51.034;3.742;2023-02-28T15:02:53;4.00;;;3.28;;
34019;SDS011;20895;51.034;3.742;2023-02-28T15:05:24;5.07;;;3.40;;
34019;SDS011;20895;51.034;3.742;2023-02-28T15:08:00;10.23;;;4.25;;
34019;SDS011;20895;51.034;3.742;2023-02-28T15:10:26;4.80;;;2.58;;
34019;SDS011;20895;51.034;3.742;2023-02-28T15:13:02;4.75;;;3.05;;
34019;SDS011;20895;51.034;3.742;2023-02-28T15:15:35;3.97;;;2.35;;
34019;SDS011;20895;51.034;3.742;2023-02-28T15:18:01;10.48;;;3.03;;
34019;SDS011;20895;51.034;3.742;2023-02-28T15:20:28;6.45;;;2.60;;
34019;SDS011;20895;51.034;3.742;2023-02-28T15:22:54;8.75;;;3.50;;
34019;SDS011;20895;51.034;3.742;2023-02-28T15:25:20;5.05;;;2.53;;
34019;SDS011;20895;51.034;3.742;2023-02-28T15:27:50;8.18;;;3.00;;
34019;SDS011;20895;51.034;3.742;2023-02-28T15:30:17;17.67;;;4.05;;
34019;SDS011;20895;51.034;3.742;2023-02-28T15:32:43;4.30;;;2.95;;
34019;SDS011;20895;51.034;3.742;2023-02-28T15:37:56;5.68;;;1.98;;
34019;SDS011;20895;51.034;3.742;2023-02-28T15:43:00;2.60;;;1.88;;
34019;SDS011;20895;51.034;3.742;2023-02-28T15:45:31;3.90;;;2.72;;
34019;SDS011;20895;51.034;3.742;2023-02-28T15:47:57;5.75;;;2.85;;
34019;SDS011;20895;51.034;3.742;2023-02-28T15:50:22;4.10;;;2.88;;
34019;SDS011;20895;51.034;3.742;2023-02-28T15:52:47;6.28;;;4.40;;
34019;SDS011;20895;51.034;3.742;2023-02-28T15:55:23;7.07;;;3.05;;
34019;SDS011;20895;51.034;3.742;2023-02-28T15:57:59;6.93;;;3.25;;
34019;SDS011;20895;51.034;3.742;2023-02-28T16:00:26;4.78;;;3.08;;
34019;SDS011;20895;51.034;3.742;2023-02-28T16:02:51;22.75;;;4.18;;
34019;SDS011;20895;51.034;3.742;2023-02-28T16:05:24;4.63;;;3.03;;
34019;SDS011;20895;51.034;3.742;2023-02-28T16:08:10;10.13;;;3.42;;
34019;SDS011;20895;51.034;3.742;2023-02-28T16:10:36;5.60;;;3.45;;
34019;SDS011;20895;51.034;3.742;2023-02-28T16:13:01;11.60;;;3.40;;
34019;SDS011;20895;51.034;3.742;2023-02-28T16:15:28;8.27;;;3.33;;
34019;SDS011;20895;51.034;3.742;2023-02-28T16:17:54;8.57;;;2.83;;
34019;SDS011;20895;51.034;3.742;2023-02-28T16:20:24;6.10;;;2.97;;
34019;SDS011;20895;51.034;3.742;2023-02-28T16:22:49;7.00;;;2.92;;
34019;SDS011;20895;51.034;3.742;2023-02-28T16:25:16;5.38;;;2.92;;
34019;SDS011;20895;51.034;3.742;2023-02-28T16:27:42;4.95;;;3.13;;
34019;SDS011;20895;51.034;3.742;2023-02-28T16:30:19;3.55;;;2.50;;
34019;SDS011;20895;51.034;3.742;2023-02-28T16:32:45;9.35;;;2.95;;
34019;SDS011;20895;51.034;3.742;2023-02-28T16:35:11;6.22;;;2.90;;
34019;SDS011;20895;51.034;3.742;2023-02-28T16:37:36;4.53;;;2.30;;
34019;SDS011;20895;51.034;3.742;2023-02-28T16:40:02;4.65;;;3.05;;
34019;SDS011;20895;51.034;3.742;2023-02-28T16:42:28;60.58;;;6.80;;
34019;SDS011;20895;51.034;3.742;2023-02-28T16:44:53;7.93;;;3.40;;
34019;SDS011;20895;51.034;3.742;2023-02-28T16:47:19;4.40;;;2.92;;
34019;SDS011;20895;51.034;3.742;2023-02-28T16:49:45;4.15;;;2.88;;
34019;SDS011;20895;51.034;3.742;2023-02-28T16:52:12;7.15;;;3.38;;
34019;SDS011;20895;51.034;3.742;2023-02-28T16:54:38;5.93;;;2.97;;
34019;SDS011;20895;51.034;3.742;2023-02-28T16:57:04;11.48;;;4.05;;
34019;SDS011;20895;51.034;3.742;2023-02-28T16:59:29;25.75;;;5.22;;
34019;SDS011;20895;51.034;3.742;2023-02-28T17:01:55;5.72;;;3.17;;
34019;SDS011;20895;51.034;3.742;2023-02-28T17:04:22;5.38;;;3.45;;
34019;SDS011;20895;51.034;3.742;2023-02-28T17:06:48;8.52;;;3.65;;
34019;SDS011;20895;51.034;3.742;2023-02-28T17:09:17;6.13;;;3.60;;
34019;SDS011;20895;51.034;3.742;2023-02-28T17:11:43;7.95;;;3.70;;
34019;SDS011;20895;51.034;3.742;2023-02-28T17:14:09;10.57;;;3.05;;
34019;SDS011;20895;51.034;3.742;2023-02-28T17:16:35;22.17;;;5.30;;